Westwood, Indiana
Current Conditions -  °F | °C
As of 8:53 AM on Saturday 22 Nov 2014 (Local Time) from KMIE Reporting Station
Overcast Overcast  
Wind Chill: 36°   Ceiling: 9000
Heat Index: 43°   Visibility: 10mi
Dew Point: 34°   Wind: 14mph
Humidity: 71%   Direction: 200°SSW
Pressure: 30.16"   Gusts: 24mph
Location:  39.9231°N, 85.3444°W
Report Text: KMIE 221353Z 20012G21KT 10SM FEW050 OVC090 06/01 A3016 RMK AO2 SLP218 T00610011
Loading
Personal Weather Stations






























Interactive Weather Map New forecast layout! Learn more

10-Day Weather Forecast

Advertisements
Track Severe Weather on mobile